sensor_id;sensor_type;location;lat;lon;timestamp;P1;durP1;ratioP1;P2;durP2;ratioP2
2001;SDS011;1003;48.002;7.788;2022-10-22T00:02:18;1.07;;;0.80;;
2001;SDS011;1003;48.002;7.788;2022-10-22T00:04:45;1.80;;;1.03;;
2001;SDS011;1003;48.002;7.788;2022-10-22T00:07:14;1.30;;;0.80;;
2001;SDS011;1003;48.002;7.788;2022-10-22T00:09:43;3.27;;;1.20;;
2001;SDS011;1003;48.002;7.788;2022-10-22T00:12:10;3.20;;;1.27;;
2001;SDS011;1003;48.002;7.788;2022-10-22T00:14:38;2.87;;;1.30;;
2001;SDS011;1003;48.002;7.788;2022-10-22T00:17:06;2.20;;;1.23;;
2001;SDS011;1003;48.002;7.788;2022-10-22T00:19:33;0.90;;;0.90;;
2001;SDS011;1003;48.002;7.788;2022-10-22T00:22:00;1.30;;;1.20;;
2001;SDS011;1003;48.002;7.788;2022-10-22T00:24:31;1.10;;;1.00;;
2001;SDS011;1003;48.002;7.788;2022-10-22T00:26:58;1.23;;;1.10;;
2001;SDS011;1003;48.002;7.788;2022-10-22T00:29:26;1.20;;;1.10;;
2001;SDS011;1003;48.002;7.788;2022-10-22T00:31:53;1.90;;;1.33;;
2001;SDS011;1003;48.002;7.788;2022-10-22T00:34:21;1.37;;;0.93;;
2001;SDS011;1003;48.002;7.788;2022-10-22T00:36:48;1.77;;;1.00;;
2001;SDS011;1003;48.002;7.788;2022-10-22T00:39:17;1.53;;;1.10;;
2001;SDS011;1003;48.002;7.788;2022-10-22T00:41:48;1.17;;;1.07;;
2001;SDS011;1003;48.002;7.788;2022-10-22T00:47:43;2.23;;;1.30;;
2001;SDS011;1003;48.002;7.788;2022-10-22T00:50:16;1.63;;;1.30;;
2001;SDS011;1003;48.002;7.788;2022-10-22T00:52:48;2.20;;;1.10;;
2001;SDS011;1003;48.002;7.788;2022-10-22T00:55:16;3.57;;;1.50;;
2001;SDS011;1003;48.002;7.788;2022-10-22T00:57:46;1.50;;;1.40;;
2001;SDS011;1003;48.002;7.788;2022-10-22T01:00:15;1.97;;;1.50;;
2001;SDS011;1003;48.002;7.788;2022-10-22T01:02:42;1.80;;;1.70;;
2001;SDS011;1003;48.002;7.788;2022-10-22T01:05:10;2.63;;;1.40;;
2001;SDS011;1003;48.002;7.788;2022-10-22T01:07:39;2.10;;;1.60;;
2001;SDS011;1003;48.002;7.788;2022-10-22T01:10:12;1.50;;;1.40;;
2001;SDS011;1003;48.002;7.788;2022-10-22T01:12:56;2.27;;;1.67;;
2001;SDS011;1003;48.002;7.788;2022-10-22T01:15:41;1.80;;;1.60;;
2001;SDS011;1003;48.002;7.788;2022-10-22T01:18:20;2.07;;;1.70;;
2001;SDS011;1003;48.002;7.788;2022-10-22T01:21:01;1.57;;;1.47;;
2001;SDS011;1003;48.002;7.788;2022-10-22T01:23:47;4.13;;;2.10;;
2001;SDS011;1003;48.002;7.788;2022-10-22T01:27:05;2.23;;;2.00;;
2001;SDS011;1003;48.002;7.788;2022-10-22T01:29:50;3.80;;;2.10;;
2001;SDS011;1003;48.002;7.788;2022-10-22T01:32:24;3.13;;;2.03;;
2001;SDS011;1003;48.002;7.788;2022-10-22T01:35:02;2.87;;;2.23;;
2001;SDS011;1003;48.002;7.788;2022-10-22T01:37:35;3.63;;;2.47;;
2001;SDS011;1003;48.002;7.788;2022-10-22T01:40:10;5.87;;;2.87;;
2001;SDS011;1003;48.002;7.788;2022-10-22T01:42:40;6.33;;;3.53;;
2001;SDS011;1003;48.002;7.788;2022-10-22T01:45:11;5.83;;;3.83;;
2001;SDS011;1003;48.002;7.788;2022-10-22T01:47:41;5.53;;;3.97;;
2001;SDS011;1003;48.002;7.788;2022-10-22T01:50:25;7.10;;;4.60;;
2001;SDS011;1003;48.002;7.788;2022-10-22T01:53:31;11.73;;;5.87;;
2001;SDS011;1003;48.002;7.788;2022-10-22T01:56:15;13.03;;;6.30;;
2001;SDS011;1003;48.002;7.788;2022-10-22T01:59:02;11.20;;;5.47;;
2001;SDS011;1003;48.002;7.788;2022-10-22T02:01:38;10.53;;;5.63;;
2001;SDS011;1003;48.002;7.788;2022-10-22T02:04:19;8.80;;;5.30;;
2001;SDS011;1003;48.002;7.788;2022-10-22T02:06:54;9.07;;;5.27;;
2001;SDS011;1003;48.002;7.788;2022-10-22T02:09:27;10.67;;;6.33;;
2001;SDS011;1003;48.002;7.788;2022-10-22T02:11:57;11.07;;;5.53;;
2001;SDS011;1003;48.002;7.788;2022-10-22T02:14:30;9.13;;;5.43;;
2001;SDS011;1003;48.002;7.788;2022-10-22T02:17:03;11.00;;;6.30;;
2001;SDS011;1003;48.002;7.788;2022-10-22T02:19:37;8.10;;;4.97;;
2001;SDS011;1003;48.002;7.788;2022-10-22T02:22:12;8.70;;;5.37;;
2001;SDS011;1003;48.002;7.788;2022-10-22T02:24:39;9.17;;;5.07;;
2001;SDS011;1003;48.002;7.788;2022-10-22T02:27:08;7.77;;;4.77;;
2001;SDS011;1003;48.002;7.788;2022-10-22T02:29:46;6.07;;;3.90;;
2001;SDS011;1003;48.002;7.788;2022-10-22T02:32:24;7.20;;;4.47;;
2001;SDS011;1003;48.002;7.788;2022-10-22T02:34:58;7.90;;;4.80;;
2001;SDS011;1003;48.002;7.788;2022-10-22T02:37:27;8.43;;;5.13;;
2001;SDS011;1003;48.002;7.788;2022-10-22T02:39:54;8.80;;;5.10;;
2001;SDS011;1003;48.002;7.788;2022-10-22T02:42:22;10.00;;;5.97;;
2001;SDS011;1003;48.002;7.788;2022-10-22T02:44:51;11.07;;;5.87;;
2001;SDS011;1003;48.002;7.788;2022-10-22T02:47:18;12.47;;;6.40;;
2001;SDS011;1003;48.002;7.788;2022-10-22T02:49:47;14.37;;;7.13;;
2001;SDS011;1003;48.002;7.788;2022-10-22T02:52:14;13.20;;;7.47;;
2001;SDS011;1003;48.002;7.788;2022-10-22T02:54:41;13.70;;;7.33;;
2001;SDS011;1003;48.002;7.788;2022-10-22T02:57:08;10.83;;;6.57;;
2001;SDS011;1003;48.002;7.788;2022-10-22T02:59:35;14.60;;;8.13;;
2001;SDS011;1003;48.002;7.788;2022-10-22T03:02:02;10.83;;;6.23;;
2001;SDS011;1003;48.002;7.788;2022-10-22T03:04:29;11.37;;;6.70;;
2001;SDS011;1003;48.002;7.788;2022-10-22T03:06:58;11.00;;;5.50;;
2001;SDS011;1003;48.002;7.788;2022-10-22T03:09:25;9.70;;;6.60;;
2001;SDS011;1003;48.002;7.788;2022-10-22T03:11:52;10.60;;;6.40;;
2001;SDS011;1003;48.002;7.788;2022-10-22T03:14:19;11.10;;;6.87;;
2001;SDS011;1003;48.002;7.788;2022-10-22T03:16:47;10.27;;;6.17;;
2001;SDS011;1003;48.002;7.788;2022-10-22T03:19:14;12.40;;;7.17;;
2001;SDS011;1003;48.002;7.788;2022-10-22T03:21:41;12.43;;;7.83;;
2001;SDS011;1003;48.002;7.788;2022-10-22T03:24:18;12.07;;;7.00;;
2001;SDS011;1003;48.002;7.788;2022-10-22T03:26:50;11.20;;;6.97;;
2001;SDS011;1003;48.002;7.788;2022-10-22T03:29:18;11.83;;;7.20;;
2001;SDS011;1003;48.002;7.788;2022-10-22T03:31:48;10.80;;;6.60;;
2001;SDS011;1003;48.002;7.788;2022-10-22T03:34:15;10.70;;;6.83;;
2001;SDS011;1003;48.002;7.788;2022-10-22T03:36:42;9.63;;;5.80;;
2001;SDS011;1003;48.002;7.788;2022-10-22T03:39:10;9.93;;;5.97;;
2001;SDS011;1003;48.002;7.788;2022-10-22T03:41:43;10.23;;;6.03;;
2001;SDS011;1003;48.002;7.788;2022-10-22T03:44:11;8.83;;;5.30;;
2001;SDS011;1003;48.002;7.788;2022-10-22T03:46:39;9.03;;;5.80;;
2001;SDS011;1003;48.002;7.788;2022-10-22T03:49:06;10.10;;;5.70;;
2001;SDS011;1003;48.002;7.788;2022-10-22T03:51:33;9.30;;;5.87;;
2001;SDS011;1003;48.002;7.788;2022-10-22T03:54:00;9.30;;;5.37;;
2001;SDS011;1003;48.002;7.788;2022-10-22T03:56:28;9.47;;;5.40;;
2001;SDS011;1003;48.002;7.788;2022-10-22T03:58:57;8.50;;;5.37;;
2001;SDS011;1003;48.002;7.788;2022-10-22T04:01:26;9.03;;;5.57;;
2001;SDS011;1003;48.002;7.788;2022-10-22T04:03:54;9.73;;;5.43;;
2001;SDS011;1003;48.002;7.788;2022-10-22T04:06:22;8.60;;;5.30;;
2001;SDS011;1003;48.002;7.788;2022-10-22T04:08:49;9.97;;;6.03;;
2001;SDS011;1003;48.002;7.788;2022-10-22T04:11:17;9.27;;;5.37;;
2001;SDS011;1003;48.002;7.788;2022-10-22T04:13:44;10.07;;;5.97;;
2001;SDS011;1003;48.002;7.788;2022-10-22T04:16:13;10.70;;;6.10;;
2001;SDS011;1003;48.002;7.788;2022-10-22T04:18:42;10.40;;;6.13;;
2001;SDS011;1003;48.002;7.788;2022-10-22T04:21:11;11.07;;;6.37;;
2001;SDS011;1003;48.002;7.788;2022-10-22T04:23:43;12.70;;;7.10;;
2001;SDS011;1003;48.002;7.788;2022-10-22T04:26:11;11.70;;;6.60;;
2001;SDS011;1003;48.002;7.788;2022-10-22T04:28:39;11.80;;;7.43;;
2001;SDS011;1003;48.002;7.788;2022-10-22T04:31:07;13.00;;;7.70;;
2001;SDS011;1003;48.002;7.788;2022-10-22T04:33:37;10.73;;;5.93;;
2001;SDS011;1003;48.002;7.788;2022-10-22T04:36:05;9.80;;;6.13;;
2001;SDS011;1003;48.002;7.788;2022-10-22T04:38:34;10.53;;;6.40;;
2001;SDS011;1003;48.002;7.788;2022-10-22T04:41:07;11.90;;;7.13;;
2001;SDS011;1003;48.002;7.788;2022-10-22T04:43:36;11.60;;;6.60;;
2001;SDS011;1003;48.002;7.788;2022-10-22T04:46:04;11.60;;;6.27;;
2001;SDS011;1003;48.002;7.788;2022-10-22T04:48:33;9.50;;;5.73;;
2001;SDS011;1003;48.002;7.788;2022-10-22T04:51:01;10.07;;;6.60;;
2001;SDS011;1003;48.002;7.788;2022-10-22T04:53:30;12.50;;;6.77;;
2001;SDS011;1003;48.002;7.788;2022-10-22T04:56:06;12.00;;;7.00;;
2001;SDS011;1003;48.002;7.788;2022-10-22T04:58:35;13.60;;;8.07;;
2001;SDS011;1003;48.002;7.788;2022-10-22T05:01:10;14.87;;;7.97;;
2001;SDS011;1003;48.002;7.788;2022-10-22T05:03:39;17.33;;;8.50;;
2001;SDS011;1003;48.002;7.788;2022-10-22T05:06:09;15.50;;;7.80;;
2001;SDS011;1003;48.002;7.788;2022-10-22T05:08:36;13.97;;;7.73;;
2001;SDS011;1003;48.002;7.788;2022-10-22T05:11:09;11.77;;;6.73;;
2001;SDS011;1003;48.002;7.788;2022-10-22T05:13:38;14.53;;;8.13;;
2001;SDS011;1003;48.002;7.788;2022-10-22T05:16:05;15.73;;;7.87;;
2001;SDS011;1003;48.002;7.788;2022-10-22T05:18:33;12.43;;;6.97;;
2001;SDS011;1003;48.002;7.788;2022-10-22T05:21:01;14.67;;;7.20;;
2001;SDS011;1003;48.002;7.788;2022-10-22T05:23:30;11.13;;;7.00;;
2001;SDS011;1003;48.002;7.788;2022-10-22T05:26:00;12.80;;;7.70;;
2001;SDS011;1003;48.002;7.788;2022-10-22T05:28:28;11.90;;;6.67;;
2001;SDS011;1003;48.002;7.788;2022-10-22T05:30:55;9.07;;;5.90;;
2001;SDS011;1003;48.002;7.788;2022-10-22T05:33:24;12.00;;;6.40;;
2001;SDS011;1003;48.002;7.788;2022-10-22T05:35:52;10.63;;;6.07;;
2001;SDS011;1003;48.002;7.788;2022-10-22T05:38:19;9.53;;;5.63;;
2001;SDS011;1003;48.002;7.788;2022-10-22T05:40:49;8.10;;;5.87;;
2001;SDS011;1003;48.002;7.788;2022-10-22T05:43:25;9.37;;;5.73;;
2001;SDS011;1003;48.002;7.788;2022-10-22T05:45:53;8.03;;;5.33;;
2001;SDS011;1003;48.002;7.788;2022-10-22T05:48:20;10.93;;;6.63;;
2001;SDS011;1003;48.002;7.788;2022-10-22T05:50:47;7.80;;;5.23;;
2001;SDS011;1003;48.002;7.788;2022-10-22T05:53:15;11.73;;;6.27;;
2001;SDS011;1003;48.002;7.788;2022-10-22T05:55:43;8.70;;;5.37;;
2001;SDS011;1003;48.002;7.788;2022-10-22T05:58:12;8.07;;;5.00;;
2001;SDS011;1003;48.002;7.788;2022-10-22T06:00:40;7.50;;;5.10;;
2001;SDS011;1003;48.002;7.788;2022-10-22T06:03:07;7.17;;;4.87;;
2001;SDS011;1003;48.002;7.788;2022-10-22T06:05:34;8.73;;;5.07;;
2001;SDS011;1003;48.002;7.788;2022-10-22T06:08:02;8.80;;;5.20;;
2001;SDS011;1003;48.002;7.788;2022-10-22T06:10:30;8.50;;;5.10;;
2001;SDS011;1003;48.002;7.788;2022-10-22T06:12:58;8.07;;;5.00;;
2001;SDS011;1003;48.002;7.788;2022-10-22T06:15:27;8.60;;;5.77;;
2001;SDS011;1003;48.002;7.788;2022-10-22T06:17:54;9.90;;;5.90;;
2001;SDS011;1003;48.002;7.788;2022-10-22T06:20:21;9.40;;;5.27;;
2001;SDS011;1003;48.002;7.788;2022-10-22T06:22:48;8.83;;;5.37;;
2001;SDS011;1003;48.002;7.788;2022-10-22T06:25:15;10.90;;;5.90;;
2001;SDS011;1003;48.002;7.788;2022-10-22T06:27:42;12.00;;;6.10;;
2001;SDS011;1003;48.002;7.788;2022-10-22T06:30:09;10.00;;;6.07;;
2001;SDS011;1003;48.002;7.788;2022-10-22T06:32:38;9.67;;;5.87;;
2001;SDS011;1003;48.002;7.788;2022-10-22T06:35:06;10.13;;;5.77;;
2001;SDS011;1003;48.002;7.788;2022-10-22T06:37:33;11.27;;;6.37;;
2001;SDS011;1003;48.002;7.788;2022-10-22T06:40:00;8.43;;;5.60;;
2001;SDS011;1003;48.002;7.788;2022-10-22T06:42:27;12.03;;;5.63;;
2001;SDS011;1003;48.002;7.788;2022-10-22T06:44:54;10.30;;;5.63;;
2001;SDS011;1003;48.002;7.788;2022-10-22T06:47:21;11.03;;;6.80;;
2001;SDS011;1003;48.002;7.788;2022-10-22T06:49:49;14.33;;;6.83;;
2001;SDS011;1003;48.002;7.788;2022-10-22T06:52:16;8.50;;;5.47;;
2001;SDS011;1003;48.002;7.788;2022-10-22T06:54:43;9.60;;;5.57;;
2001;SDS011;1003;48.002;7.788;2022-10-22T06:57:10;10.60;;;6.13;;
2001;SDS011;1003;48.002;7.788;2022-10-22T06:59:37;10.90;;;5.53;;
2001;SDS011;1003;48.002;7.788;2022-10-22T07:02:04;10.30;;;6.10;;
2001;SDS011;1003;48.002;7.788;2022-10-22T07:04:31;13.33;;;6.63;;
2001;SDS011;1003;48.002;7.788;2022-10-22T07:07:00;8.93;;;5.50;;
2001;SDS011;1003;48.002;7.788;2022-10-22T07:09:27;11.53;;;6.33;;
2001;SDS011;1003;48.002;7.788;2022-10-22T07:11:54;12.87;;;6.83;;
2001;SDS011;1003;48.002;7.788;2022-10-22T07:14:21;9.57;;;5.07;;
2001;SDS011;1003;48.002;7.788;2022-10-22T07:16:48;10.30;;;5.53;;
2001;SDS011;1003;48.002;7.788;2022-10-22T07:19:15;8.83;;;5.40;;
2001;SDS011;1003;48.002;7.788;2022-10-22T07:21:42;7.37;;;4.97;;
2001;SDS011;1003;48.002;7.788;2022-10-22T07:24:11;6.23;;;4.30;;
2001;SDS011;1003;48.002;7.788;2022-10-22T07:26:38;10.00;;;5.63;;
2001;SDS011;1003;48.002;7.788;2022-10-22T07:29:05;10.63;;;6.40;;
2001;SDS011;1003;48.002;7.788;2022-10-22T07:31:33;10.73;;;6.57;;
2001;SDS011;1003;48.002;7.788;2022-10-22T07:34:00;7.83;;;5.30;;
2001;SDS011;1003;48.002;7.788;2022-10-22T07:36:28;9.43;;;5.87;;
2001;SDS011;1003;48.002;7.788;2022-10-22T07:38:55;9.87;;;5.97;;
2001;SDS011;1003;48.002;7.788;2022-10-22T07:41:25;10.73;;;5.63;;
2001;SDS011;1003;48.002;7.788;2022-10-22T07:43:54;8.60;;;5.23;;
2001;SDS011;1003;48.002;7.788;2022-10-22T07:46:22;9.77;;;5.63;;
2001;SDS011;1003;48.002;7.788;2022-10-22T07:48:50;8.17;;;5.30;;
2001;SDS011;1003;48.002;7.788;2022-10-22T07:51:17;9.63;;;6.10;;
2001;SDS011;1003;48.002;7.788;2022-10-22T07:53:44;8.37;;;5.70;;
2001;SDS011;1003;48.002;7.788;2022-10-22T07:56:11;9.20;;;6.23;;
2001;SDS011;1003;48.002;7.788;2022-10-22T07:58:40;8.03;;;5.67;;
2001;SDS011;1003;48.002;7.788;2022-10-22T08:01:07;9.77;;;6.13;;
2001;SDS011;1003;48.002;7.788;2022-10-22T08:03:34;9.70;;;5.97;;
2001;SDS011;1003;48.002;7.788;2022-10-22T08:06:01;8.80;;;5.87;;
2001;SDS011;1003;48.002;7.788;2022-10-22T08:08:28;9.73;;;6.37;;
2001;SDS011;1003;48.002;7.788;2022-10-22T08:10:56;8.23;;;6.40;;
2001;SDS011;1003;48.002;7.788;2022-10-22T08:13:25;9.03;;;6.13;;
2001;SDS011;1003;48.002;7.788;2022-10-22T08:15:56;8.00;;;5.40;;
2001;SDS011;1003;48.002;7.788;2022-10-22T08:18:23;7.97;;;5.63;;
2001;SDS011;1003;48.002;7.788;2022-10-22T08:20:51;8.57;;;5.10;;
2001;SDS011;1003;48.002;7.788;2022-10-22T08:23:18;6.43;;;4.40;;
2001;SDS011;1003;48.002;7.788;2022-10-22T08:25:46;6.10;;;4.83;;
2001;SDS011;1003;48.002;7.788;2022-10-22T08:28:13;5.30;;;3.70;;
2001;SDS011;1003;48.002;7.788;2022-10-22T08:30:40;5.37;;;3.90;;
2001;SDS011;1003;48.002;7.788;2022-10-22T08:33:11;5.53;;;3.90;;
2001;SDS011;1003;48.002;7.788;2022-10-22T08:35:38;3.87;;;3.47;;
2001;SDS011;1003;48.002;7.788;2022-10-22T08:38:05;4.50;;;3.80;;
2001;SDS011;1003;48.002;7.788;2022-10-22T08:40:33;7.20;;;3.50;;
2001;SDS011;1003;48.002;7.788;2022-10-22T08:43:08;4.50;;;3.33;;
2001;SDS011;1003;48.002;7.788;2022-10-22T08:46:09;4.30;;;3.10;;
2001;SDS011;1003;48.002;7.788;2022-10-22T08:48:55;4.47;;;3.50;;
2001;SDS011;1003;48.002;7.788;2022-10-22T08:51:28;5.23;;;3.30;;
2001;SDS011;1003;48.002;7.788;2022-10-22T08:54:15;4.47;;;3.17;;
2001;SDS011;1003;48.002;7.788;2022-10-22T08:57:02;3.70;;;2.90;;
2001;SDS011;1003;48.002;7.788;2022-10-22T09:00:05;3.87;;;2.70;;
2001;SDS011;1003;48.002;7.788;2022-10-22T09:02:41;5.37;;;2.70;;
2001;SDS011;1003;48.002;7.788;2022-10-22T09:05:29;4.87;;;2.50;;
2001;SDS011;1003;48.002;7.788;2022-10-22T09:08:09;5.27;;;2.60;;
2001;SDS011;1003;48.002;7.788;2022-10-22T09:10:39;4.30;;;2.40;;
2001;SDS011;1003;48.002;7.788;2022-10-22T09:13:20;3.27;;;2.10;;
2001;SDS011;1003;48.002;7.788;2022-10-22T09:15:50;3.47;;;2.20;;
2001;SDS011;1003;48.002;7.788;2022-10-22T09:18:26;2.80;;;2.10;;
2001;SDS011;1003;48.002;7.788;2022-10-22T09:21:10;4.03;;;2.50;;
2001;SDS011;1003;48.002;7.788;2022-10-22T09:23:54;2.50;;;2.00;;
2001;SDS011;1003;48.002;7.788;2022-10-22T09:26:30;4.30;;;1.90;;
2001;SDS011;1003;48.002;7.788;2022-10-22T09:29:02;4.20;;;1.93;;
2001;SDS011;1003;48.002;7.788;2022-10-22T09:31:30;2.43;;;1.90;;
2001;SDS011;1003;48.002;7.788;2022-10-22T09:33:59;3.47;;;1.70;;
2001;SDS011;1003;48.002;7.788;2022-10-22T09:36:33;3.63;;;1.80;;
2001;SDS011;1003;48.002;7.788;2022-10-22T09:39:00;2.67;;;1.60;;
2001;SDS011;1003;48.002;7.788;2022-10-22T09:41:28;1.50;;;1.40;;
2001;SDS011;1003;48.002;7.788;2022-10-22T09:43:56;1.93;;;1.60;;
2001;SDS011;1003;48.002;7.788;2022-10-22T09:46:26;3.13;;;1.60;;
2001;SDS011;1003;48.002;7.788;2022-10-22T09:48:59;3.47;;;1.60;;
2001;SDS011;1003;48.002;7.788;2022-10-22T09:51:36;3.53;;;1.50;;
2001;SDS011;1003;48.002;7.788;2022-10-22T09:54:17;4.50;;;1.53;;
2001;SDS011;1003;48.002;7.788;2022-10-22T09:56:49;1.73;;;1.57;;
2001;SDS011;1003;48.002;7.788;2022-10-22T09:59:27;2.57;;;1.67;;
2001;SDS011;1003;48.002;7.788;2022-10-22T10:02:01;2.37;;;1.60;;
2001;SDS011;1003;48.002;7.788;2022-10-22T10:04:39;3.80;;;1.83;;
2001;SDS011;1003;48.002;7.788;2022-10-22T10:07:16;3.53;;;1.53;;
2001;SDS011;1003;48.002;7.788;2022-10-22T10:09:45;1.50;;;1.37;;
2001;SDS011;1003;48.002;7.788;2022-10-22T10:12:17;1.83;;;1.43;;
2001;SDS011;1003;48.002;7.788;2022-10-22T10:15:00;4.63;;;1.60;;
2001;SDS011;1003;48.002;7.788;2022-10-22T10:17:42;3.23;;;1.30;;
2001;SDS011;1003;48.002;7.788;2022-10-22T10:20:21;2.30;;;1.47;;
2001;SDS011;1003;48.002;7.788;2022-10-22T10:23:02;2.40;;;1.30;;
2001;SDS011;1003;48.002;7.788;2022-10-22T10:25:47;4.93;;;1.60;;
2001;SDS011;1003;48.002;7.788;2022-10-22T10:28:29;1.87;;;1.30;;
2001;SDS011;1003;48.002;7.788;2022-10-22T10:31:10;2.17;;;1.40;;
2001;SDS011;1003;48.002;7.788;2022-10-22T10:33:54;2.50;;;1.43;;
2001;SDS011;1003;48.002;7.788;2022-10-22T10:36:42;2.20;;;1.33;;
2001;SDS011;1003;48.002;7.788;2022-10-22T10:39:22;2.33;;;1.38;;
2001;SDS011;1003;48.002;7.788;2022-10-22T10:41:59;2.70;;;1.50;;
2001;SDS011;1003;48.002;7.788;2022-10-22T10:44:44;2.63;;;1.60;;
2001;SDS011;1003;48.002;7.788;2022-10-22T10:47:29;3.93;;;1.40;;
2001;SDS011;1003;48.002;7.788;2022-10-22T10:50:19;3.23;;;1.40;;
2001;SDS011;1003;48.002;7.788;2022-10-22T10:52:57;2.00;;;1.50;;
2001;SDS011;1003;48.002;7.788;2022-10-22T10:55:40;2.47;;;1.33;;
2001;SDS011;1003;48.002;7.788;2022-10-22T10:58:24;4.03;;;1.37;;
2001;SDS011;1003;48.002;7.788;2022-10-22T11:01:07;3.63;;;1.83;;
2001;SDS011;1003;48.002;7.788;2022-10-22T11:04:01;1.40;;;1.30;;
2001;SDS011;1003;48.002;7.788;2022-10-22T11:07:15;4.43;;;1.57;;
2001;SDS011;1003;48.002;7.788;2022-10-22T11:09:52;1.90;;;1.60;;
2001;SDS011;1003;48.002;7.788;2022-10-22T11:12:27;1.67;;;1.37;;
2001;SDS011;1003;48.002;7.788;2022-10-22T11:15:00;3.83;;;1.57;;
2001;SDS011;1003;48.002;7.788;2022-10-22T11:17:35;3.07;;;1.63;;
2001;SDS011;1003;48.002;7.788;2022-10-22T11:20:12;3.43;;;1.50;;
2001;SDS011;1003;48.002;7.788;2022-10-22T11:22:46;3.60;;;1.70;;
2001;SDS011;1003;48.002;7.788;2022-10-22T11:25:21;5.60;;;1.60;;
2001;SDS011;1003;48.002;7.788;2022-10-22T11:27:55;3.57;;;1.77;;
2001;SDS011;1003;48.002;7.788;2022-10-22T11:30:30;1.80;;;1.60;;
2001;SDS011;1003;48.002;7.788;2022-10-22T11:33:01;3.90;;;2.03;;
2001;SDS011;1003;48.002;7.788;2022-10-22T11:35:36;3.10;;;1.57;;
2001;SDS011;1003;48.002;7.788;2022-10-22T11:38:08;2.17;;;1.63;;
2001;SDS011;1003;48.002;7.788;2022-10-22T11:40:43;2.40;;;1.73;;
2001;SDS011;1003;48.002;7.788;2022-10-22T11:43:26;3.47;;;1.60;;
2001;SDS011;1003;48.002;7.788;2022-10-22T11:45:57;2.00;;;1.50;;
2001;SDS011;1003;48.002;7.788;2022-10-22T11:48:35;2.73;;;1.63;;
2001;SDS011;1003;48.002;7.788;2022-10-22T11:51:03;1.67;;;1.40;;
2001;SDS011;1003;48.002;7.788;2022-10-22T11:53:58;2.83;;;1.47;;
2001;SDS011;1003;48.002;7.788;2022-10-22T11:56:47;2.83;;;1.50;;
2001;SDS011;1003;48.002;7.788;2022-10-22T11:59:38;3.10;;;1.50;;
2001;SDS011;1003;48.002;7.788;2022-10-22T12:02:21;2.80;;;1.60;;
2001;SDS011;1003;48.002;7.788;2022-10-22T12:08:05;4.70;;;1.70;;
2001;SDS011;1003;48.002;7.788;2022-10-22T12:13:51;3.13;;;1.63;;
2001;SDS011;1003;48.002;7.788;2022-10-22T12:16:34;3.13;;;1.50;;
2001;SDS011;1003;48.002;7.788;2022-10-22T12:19:05;2.87;;;1.80;;
2001;SDS011;1003;48.002;7.788;2022-10-22T12:21:41;3.17;;;1.63;;
2001;SDS011;1003;48.002;7.788;2022-10-22T12:24:16;3.23;;;1.50;;
2001;SDS011;1003;48.002;7.788;2022-10-22T12:26:46;3.73;;;1.57;;
2001;SDS011;1003;48.002;7.788;2022-10-22T12:29:17;4.00;;;1.60;;
2001;SDS011;1003;48.002;7.788;2022-10-22T12:31:48;2.37;;;1.40;;
2001;SDS011;1003;48.002;7.788;2022-10-22T12:34:15;3.17;;;1.30;;
2001;SDS011;1003;48.002;7.788;2022-10-22T12:36:46;2.90;;;1.63;;
2001;SDS011;1003;48.002;7.788;2022-10-22T12:39:18;1.80;;;1.50;;
2001;SDS011;1003;48.002;7.788;2022-10-22T12:41:50;2.57;;;1.47;;
2001;SDS011;1003;48.002;7.788;2022-10-22T12:44:18;2.93;;;1.60;;
2001;SDS011;1003;48.002;7.788;2022-10-22T12:46:46;2.43;;;1.70;;
2001;SDS011;1003;48.002;7.788;2022-10-22T12:49:16;1.50;;;1.40;;
2001;SDS011;1003;48.002;7.788;2022-10-22T12:51:47;3.00;;;1.60;;
2001;SDS011;1003;48.002;7.788;2022-10-22T12:54:20;2.97;;;1.50;;
2001;SDS011;1003;48.002;7.788;2022-10-22T12:56:55;2.13;;;1.40;;
2001;SDS011;1003;48.002;7.788;2022-10-22T12:59:24;2.60;;;1.63;;
2001;SDS011;1003;48.002;7.788;2022-10-22T13:01:55;2.93;;;1.43;;
2001;SDS011;1003;48.002;7.788;2022-10-22T13:04:33;1.93;;;1.20;;
2001;SDS011;1003;48.002;7.788;2022-10-22T13:07:03;2.63;;;1.17;;
2001;SDS011;1003;48.002;7.788;2022-10-22T13:09:45;3.03;;;1.30;;
2001;SDS011;1003;48.002;7.788;2022-10-22T13:12:23;2.97;;;1.20;;
2001;SDS011;1003;48.002;7.788;2022-10-22T13:14:51;1.50;;;1.10;;
2001;SDS011;1003;48.002;7.788;2022-10-22T13:17:19;2.30;;;1.30;;
2001;SDS011;1003;48.002;7.788;2022-10-22T13:20:13;2.00;;;1.20;;
2001;SDS011;1003;48.002;7.788;2022-10-22T13:22:51;1.53;;;1.07;;
2001;SDS011;1003;48.002;7.788;2022-10-22T13:25:26;1.27;;;1.03;;
2001;SDS011;1003;48.002;7.788;2022-10-22T13:27:55;1.63;;;1.03;;
2001;SDS011;1003;48.002;7.788;2022-10-22T13:30:26;1.37;;;1.27;;
2001;SDS011;1003;48.002;7.788;2022-10-22T13:32:56;2.37;;;1.00;;
2001;SDS011;1003;48.002;7.788;2022-10-22T13:35:27;1.97;;;1.00;;
2001;SDS011;1003;48.002;7.788;2022-10-22T13:37:57;1.57;;;1.00;;
2001;SDS011;1003;48.002;7.788;2022-10-22T13:40:26;1.97;;;1.10;;
2001;SDS011;1003;48.002;7.788;2022-10-22T13:42:53;1.43;;;1.00;;
2001;SDS011;1003;48.002;7.788;2022-10-22T13:45:20;1.40;;;1.00;;
2001;SDS011;1003;48.002;7.788;2022-10-22T13:47:48;2.27;;;1.17;;
2001;SDS011;1003;48.002;7.788;2022-10-22T13:50:19;1.33;;;1.00;;
2001;SDS011;1003;48.002;7.788;2022-10-22T13:52:48;2.60;;;1.00;;
2001;SDS011;1003;48.002;7.788;2022-10-22T13:55:18;1.53;;;1.20;;
2001;SDS011;1003;48.002;7.788;2022-10-22T13:57:50;1.97;;;1.07;;
2001;SDS011;1003;48.002;7.788;2022-10-22T14:00:20;1.50;;;0.90;;
2001;SDS011;1003;48.002;7.788;2022-10-22T14:02:51;1.53;;;0.70;;
2001;SDS011;1003;48.002;7.788;2022-10-22T14:05:23;2.23;;;0.97;;
2001;SDS011;1003;48.002;7.788;2022-10-22T14:07:51;1.47;;;1.00;;
2001;SDS011;1003;48.002;7.788;2022-10-22T14:10:19;1.43;;;1.07;;
2001;SDS011;1003;48.002;7.788;2022-10-22T14:12:48;1.10;;;0.90;;
2001;SDS011;1003;48.002;7.788;2022-10-22T14:15:18;1.90;;;1.00;;
2001;SDS011;1003;48.002;7.788;2022-10-22T14:17:49;1.07;;;0.90;;
2001;SDS011;1003;48.002;7.788;2022-10-22T14:20:21;1.40;;;1.00;;
2001;SDS011;1003;48.002;7.788;2022-10-22T14:22:51;2.63;;;1.10;;
2001;SDS011;1003;48.002;7.788;2022-10-22T14:25:20;2.13;;;1.20;;
2001;SDS011;1003;48.002;7.788;2022-10-22T14:27:51;1.50;;;0.93;;
2001;SDS011;1003;48.002;7.788;2022-10-22T14:30:18;2.50;;;1.30;;
2001;SDS011;1003;48.002;7.788;2022-10-22T14:32:47;1.33;;;0.90;;
2001;SDS011;1003;48.002;7.788;2022-10-22T14:35:16;1.17;;;0.70;;
2001;SDS011;1003;48.002;7.788;2022-10-22T14:37:46;2.13;;;1.03;;
2001;SDS011;1003;48.002;7.788;2022-10-22T14:40:14;2.53;;;1.30;;
2001;SDS011;1003;48.002;7.788;2022-10-22T14:42:44;3.23;;;1.27;;
2001;SDS011;1003;48.002;7.788;2022-10-22T14:45:17;1.67;;;1.00;;
2001;SDS011;1003;48.002;7.788;2022-10-22T14:47:47;2.57;;;1.10;;
2001;SDS011;1003;48.002;7.788;2022-10-22T14:50:16;3.30;;;1.20;;
2001;SDS011;1003;48.002;7.788;2022-10-22T14:52:44;2.70;;;1.00;;
2001;SDS011;1003;48.002;7.788;2022-10-22T14:55:13;1.10;;;1.00;;
2001;SDS011;1003;48.002;7.788;2022-10-22T14:57:41;1.97;;;1.10;;
2001;SDS011;1003;48.002;7.788;2022-10-22T15:00:15;2.40;;;1.10;;
2001;SDS011;1003;48.002;7.788;2022-10-22T15:02:44;1.80;;;1.20;;
2001;SDS011;1003;48.002;7.788;2022-10-22T15:05:13;2.23;;;1.10;;
2001;SDS011;1003;48.002;7.788;2022-10-22T15:07:41;1.10;;;1.00;;
2001;SDS011;1003;48.002;7.788;2022-10-22T15:10:09;1.17;;;1.00;;
2001;SDS011;1003;48.002;7.788;2022-10-22T15:12:36;1.10;;;1.10;;
2001;SDS011;1003;48.002;7.788;2022-10-22T15:15:03;1.93;;;1.00;;
2001;SDS011;1003;48.002;7.788;2022-10-22T15:17:33;0.90;;;0.90;;
2001;SDS011;1003;48.002;7.788;2022-10-22T15:20:00;1.30;;;1.20;;
2001;SDS011;1003;48.002;7.788;2022-10-22T15:22:29;2.03;;;0.90;;
2001;SDS011;1003;48.002;7.788;2022-10-22T15:24:59;1.93;;;0.80;;
2001;SDS011;1003;48.002;7.788;2022-10-22T15:27:26;2.20;;;1.00;;
2001;SDS011;1003;48.002;7.788;2022-10-22T15:29:53;1.27;;;1.20;;
2001;SDS011;1003;48.002;7.788;2022-10-22T15:32:22;1.37;;;0.90;;
2001;SDS011;1003;48.002;7.788;2022-10-22T15:34:52;1.77;;;1.07;;
2001;SDS011;1003;48.002;7.788;2022-10-22T15:37:20;1.70;;;1.00;;
2001;SDS011;1003;48.002;7.788;2022-10-22T15:39:48;1.50;;;1.10;;
2001;SDS011;1003;48.002;7.788;2022-10-22T15:42:15;3.03;;;1.23;;
2001;SDS011;1003;48.002;7.788;2022-10-22T15:44:42;1.87;;;1.10;;
2001;SDS011;1003;48.002;7.788;2022-10-22T15:47:10;16.73;;;2.83;;
2001;SDS011;1003;48.002;7.788;2022-10-22T15:49:37;4.97;;;1.27;;
2001;SDS011;1003;48.002;7.788;2022-10-22T15:52:07;2.60;;;1.20;;